Time;durP1;ratioP1;P1;durP2;ratioP2;P2;SDS_P1;SDS_P2;PMS_P1;PMS_P2;Temp;Humidity;BMP_temperature;BMP_pressure;BME280_temperature;BME280_humidity;BME280_pressure;Samples;Min_cycle;Max_cycle;Signal;HPM_P1;HPM_P2
2021/12/03 00:01:57;;;;;;;13.20;5.68;;;;;;;3.60;100.00;99687.44;4985371;28;20030;-67
2021/12/03 00:04:22;;;;;;;11.90;4.95;;;;;;;3.63;100.00;99693.53;4993851;28;20030;-67
2021/12/03 00:06:48;;;;;;;9.15;4.60;;;;;;;3.63;100.00;99703.16;4994926;28;20433;-67
2021/12/03 00:09:13;;;;;;;10.48;5.25;;;;;;;3.61;100.00;99704.94;4990277;28;20044;-67
2021/12/03 00:11:39;;;;;;;11.35;5.07;;;;;;;3.62;100.00;99720.72;4989674;28;20479;-67
2021/12/03 00:14:04;;;;;;;10.80;5.45;;;;;;;3.64;100.00;99712.81;4991652;28;20592;-67
2021/12/03 00:16:30;;;;;;;9.13;4.80;;;;;;;3.59;100.00;99709.34;4996844;28;20101;-67
2021/12/03 00:18:55;;;;;;;10.23;5.38;;;;;;;3.65;100.00;99727.69;4986528;28;20029;-67
2021/12/03 00:21:22;;;;;;;10.18;5.32;;;;;;;3.59;100.00;99728.63;4978928;28;20019;-67
2021/12/03 00:23:47;;;;;;;12.35;5.22;;;;;;;3.58;100.00;99741.78;4981635;28;20026;-67
2021/12/03 00:26:13;;;;;;;9.93;4.97;;;;;;;3.58;100.00;99739.16;4975088;28;20019;-67
2021/12/03 00:28:39;;;;;;;12.38;5.68;;;;;;;3.58;100.00;99739.16;4984818;28;20027;-67
2021/12/03 00:31:06;;;;;;;10.82;5.88;;;;;;;3.53;100.00;99733.06;4993224;28;20129;-67
2021/12/03 00:33:32;;;;;;;14.60;7.10;;;;;;;3.58;100.00;99747.03;4993896;28;20026;-67
2021/12/03 00:36:03;;;;;;;11.60;5.70;;;;;;;3.62;100.00;99748.78;4993007;28;20037;-67
2021/12/03 00:38:30;;;;;;;11.95;6.13;;;;;;;3.58;100.00;99726.00;4979943;28;20493;-67
2021/12/03 00:40:56;;;;;;;15.68;7.03;;;;;;;3.67;100.00;99739.09;4987779;28;20036;-67
2021/12/03 00:43:21;;;;;;;11.07;5.25;;;;;;;3.73;100.00;99752.16;4993049;28;20030;-67
2021/12/03 00:45:47;;;;;;;10.30;5.28;;;;;;;3.57;100.00;99734.78;4993367;28;20030;-67
2021/12/03 00:48:12;;;;;;;10.43;4.97;;;;;;;3.55;100.00;99761.09;4988037;28;20027;-67
2021/12/03 00:50:38;;;;;;;10.38;4.85;;;;;;;3.47;100.00;99764.66;4991514;28;20026;-67
2021/12/03 00:53:03;;;;;;;10.50;5.63;;;;;;;3.46;100.00;99773.47;4993394;28;20027;-67
2021/12/03 00:55:30;;;;;;;9.60;5.75;;;;;;;3.31;100.00;99760.44;4993944;28;20026;-67
2021/12/03 00:57:56;;;;;;;15.30;5.93;;;;;;;3.37;99.86;99781.41;4983787;28;20023;-67
2021/12/03 01:00:26;;;;;;;11.95;5.40;;;;;;;3.40;100.00;99784.00;4986799;28;20371;-67
2021/12/03 01:02:54;;;;;;;14.20;6.50;;;;;;;3.38;100.00;99785.75;4985036;28;20026;-67
2021/12/03 01:05:20;;;;;;;11.38;6.80;;;;;;;3.26;100.00;99796.38;4992075;28;20036;-67
2021/12/03 01:07:45;;;;;;;13.27;5.70;;;;;;;3.24;100.00;99791.16;4983146;28;20031;-67
2021/12/03 01:10:11;;;;;;;16.80;7.05;;;;;;;3.20;100.00;99780.63;4976652;28;20089;-67
2021/12/03 01:12:38;;;;;;;12.63;6.00;;;;;;;3.25;100.00;99797.25;4975498;28;20081;-67
2021/12/03 01:15:07;;;;;;;17.30;6.85;;;;;;;3.29;100.00;99801.63;4985058;28;20061;-67
2021/12/03 01:17:33;;;;;;;13.55;5.22;;;;;;;3.28;100.00;99797.25;4992742;28;20482;-67
2021/12/03 01:20:03;;;;;;;15.30;5.78;;;;;;;3.19;100.00;99800.81;4983315;28;20021;-67
2021/12/03 01:22:28;;;;;;;12.57;5.82;;;;;;;3.13;100.00;99798.19;4972311;28;20026;-67
2021/12/03 01:24:54;;;;;;;15.23;6.43;;;;;;;3.04;100.00;99790.41;4993832;28;20089;-68
2021/12/03 01:27:19;;;;;;;14.98;7.25;;;;;;;3.06;99.76;99809.66;4992026;28;20394;-68
2021/12/03 01:29:45;;;;;;;17.98;7.72;;;;;;;2.98;100.00;99813.22;4997106;28;20027;-68
2021/12/03 01:32:13;;;;;;;16.02;7.75;;;;;;;2.84;100.00;99791.38;4992458;28;20030;-68
2021/12/03 01:34:38;;;;;;;14.77;6.57;;;;;;;2.84;100.00;99807.13;4992895;28;20164;-68
2021/12/03 01:37:04;;;;;;;12.65;7.07;;;;;;;2.80;100.00;99810.69;4990751;28;20113;-68
2021/12/03 01:39:30;;;;;;;16.83;7.88;;;;;;;2.68;100.00;99811.59;4984681;28;20041;-68
2021/12/03 01:41:55;;;;;;;15.98;7.80;;;;;;;2.72;100.00;99819.44;4991668;28;20084;-68
2021/12/03 01:44:21;;;;;;;17.85;7.90;;;;;;;2.59;100.00;99807.25;4992817;28;20026;-68
2021/12/03 01:46:46;;;;;;;14.65;7.72;;;;;;;2.65;100.00;99825.59;4987382;28;20458;-68
2021/12/03 01:49:14;;;;;;;12.85;6.55;;;;;;;2.64;100.00;99828.25;4978243;28;20115;-68
2021/12/03 01:51:40;;;;;;;13.38;6.97;;;;;;;2.61;100.00;99823.00;4972618;28;20030;-68
2021/12/03 01:54:05;;;;;;;15.25;7.63;;;;;;;2.49;100.00;99823.94;4973666;28;20084;-68
2021/12/03 01:56:30;;;;;;;13.75;6.57;;;;;;;2.41;100.00;99828.31;4975753;28;20030;-68
2021/12/03 01:58:56;;;;;;;15.63;7.38;;;;;;;2.35;100.00;99816.97;4991946;28;20442;-68
2021/12/03 02:01:27;;;;;;;15.32;6.68;;;;;;;2.38;100.00;99828.34;4989918;28;20069;-68
2021/12/03 02:03:56;;;;;;;16.45;7.60;;;;;;;2.38;100.00;99833.59;4990418;28;20153;-68
2021/12/03 02:06:23;;;;;;;15.00;6.65;;;;;;;2.32;100.00;99822.25;4990628;28;20054;-68
2021/12/03 02:08:49;;;;;;;13.90;6.43;;;;;;;2.26;100.00;99822.22;4982730;28;20463;-68
2021/12/03 02:11:16;;;;;;;14.20;7.00;;;;;;;2.23;100.00;99828.38;4991311;28;20026;-68
2021/12/03 02:13:41;;;;;;;10.82;6.22;;;;;;;2.39;100.00;99824.81;4981839;28;20050;-68
2021/12/03 02:16:08;;;;;;;11.18;5.75;;;;;;;2.50;100.00;99825.66;4991286;28;20034;-68
2021/12/03 02:18:36;;;;;;;15.52;6.75;;;;;;;2.45;100.00;99832.72;4987984;28;20491;-68
2021/12/03 02:21:05;;;;;;;12.65;6.20;;;;;;;2.42;100.00;99837.09;4999408;28;20033;-68
2021/12/03 02:23:32;;;;;;;10.65;5.95;;;;;;;2.17;100.00;99817.91;5010499;28;20520;-68
2021/12/03 02:25:57;;;;;;;11.75;6.15;;;;;;;2.18;100.00;99840.63;4987003;28;20038;-68
2021/12/03 02:28:26;;;;;;;15.93;6.18;;;;;;;2.14;100.00;99828.38;4991335;28;20557;-68
2021/12/03 02:30:52;;;;;;;12.50;6.60;;;;;;;2.24;100.00;99845.84;4987832;28;20089;-68
2021/12/03 02:33:18;;;;;;;14.00;6.28;;;;;;;2.26;100.00;99845.84;4985629;28;20501;-68
2021/12/03 02:35:45;;;;;;;11.55;6.72;;;;;;;2.21;100.00;99859.00;4990097;28;20026;-68
2021/12/03 02:38:13;;;;;;;13.30;6.78;;;;;;;2.21;100.00;99860.72;4992150;28;20018;-68
2021/12/03 02:40:39;;;;;;;13.38;5.68;;;;;;;2.21;100.00;99861.63;4983873;28;20030;-68
2021/12/03 02:43:05;;;;;;;11.02;5.38;;;;;;;2.24;100.00;99856.34;4976463;28;20114;-68
2021/12/03 02:45:31;;;;;;;12.85;5.97;;;;;;;2.14;100.00;99853.78;4971899;28;20027;-68
2021/12/03 02:47:59;;;;;;;14.98;6.95;;;;;;;2.05;100.00;99865.16;4972442;28;20051;-68
2021/12/03 02:50:25;;;;;;;14.10;6.15;;;;;;;2.14;100.00;99872.97;4990091;28;20022;-68
2021/12/03 02:52:50;;;;;;;16.30;8.30;;;;;;;2.03;100.00;99873.88;4990906;28;20072;-68
2021/12/03 02:55:16;;;;;;;15.30;8.30;;;;;;;1.99;100.00;99887.88;4988735;28;20303;-68
2021/12/03 02:57:42;;;;;;;14.30;6.28;;;;;;;1.95;100.00;99887.00;4991959;28;20109;-68
2021/12/03 03:00:11;;;;;;;16.05;7.65;;;;;;;1.87;100.00;99888.75;4985500;28;20031;-68
2021/12/03 03:02:36;;;;;;;15.80;7.13;;;;;;;1.86;100.00;99891.38;4976244;28;20125;-68
2021/12/03 03:05:02;;;;;;;18.80;8.48;;;;;;;1.81;100.00;99894.00;4975657;28;20431;-68
2021/12/03 03:07:30;;;;;;;14.60;7.18;;;;;;;1.80;100.00;99892.25;4987336;28;20030;-68
2021/12/03 03:09:55;;;;;;;14.80;8.10;;;;;;;1.83;100.00;99894.84;4980163;28;20023;-68
2021/12/03 03:12:21;;;;;;;15.55;6.85;;;;;;;1.91;100.00;99890.50;4979901;28;20487;-68
2021/12/03 03:14:51;;;;;;;15.05;6.60;;;;;;;1.91;100.00;99892.25;5001217;28;20502;-67
2021/12/03 03:17:18;;;;;;;14.73;6.95;;;;;;;1.90;100.00;99906.22;4989924;28;20082;-67
2021/12/03 03:19:44;;;;;;;11.80;6.28;;;;;;;1.88;100.00;99895.72;4982631;28;20029;-67
2021/12/03 03:22:09;;;;;;;13.57;7.97;;;;;;;1.88;100.00;99892.25;4987178;28;20125;-67
2021/12/03 03:24:35;;;;;;;15.50;7.78;;;;;;;1.90;100.00;99887.88;4990616;28;20030;-67
2021/12/03 03:27:01;;;;;;;15.05;7.30;;;;;;;1.82;100.00;99876.50;4981054;28;20045;-67
2021/12/03 03:29:27;;;;;;;15.30;6.93;;;;;;;1.87;100.00;99896.63;4990282;28;20069;-67
2021/12/03 03:31:53;;;;;;;15.15;6.82;;;;;;;1.84;100.00;99904.50;4990128;28;20442;-67
2021/12/03 03:34:18;;;;;;;15.30;7.22;;;;;;;1.84;100.00;99909.75;4989641;28;20022;-67
2021/12/03 03:36:44;;;;;;;10.73;6.13;;;;;;;1.84;100.00;99911.47;4983307;28;20030;-67
2021/12/03 03:39:12;;;;;;;16.63;7.43;;;;;;;1.84;100.00;99912.38;4990218;28;20117;-67
2021/12/03 03:41:40;;;;;;;16.30;7.30;;;;;;;1.82;100.00;99907.97;4982254;28;20046;-67
2021/12/03 03:44:05;;;;;;;17.60;7.82;;;;;;;1.83;100.00;99914.97;4990371;28;20363;-67
2021/12/03 03:46:31;;;;;;;14.18;7.10;;;;;;;1.82;100.00;99919.34;4980782;28;20162;-67
2021/12/03 03:48:56;;;;;;;12.00;6.13;;;;;;;1.84;100.00;99917.59;4990987;28;20463;-67
2021/12/03 03:51:22;;;;;;;12.27;5.72;;;;;;;1.71;100.00;99910.59;4990886;28;20031;-67
2021/12/03 03:53:48;;;;;;;12.93;6.68;;;;;;;1.84;100.00;99930.72;4991765;28;20371;-67
2021/12/03 03:56:13;;;;;;;13.10;6.72;;;;;;;1.82;100.00;99934.19;4981512;28;20089;-67
2021/12/03 03:58:41;;;;;;;11.55;5.50;;;;;;;1.72;100.00;99911.47;4991166;28;20030;-68
2021/12/03 04:01:08;;;;;;;12.13;6.07;;;;;;;1.74;100.00;99926.34;4992296;28;20026;-68
2021/12/03 04:03:33;;;;;;;18.38;7.18;;;;;;;1.66;100.00;99932.44;4992710;28;20034;-68
2021/12/03 04:05:59;;;;;;;17.25;8.90;;;;;;;1.64;100.00;99935.06;4985733;28;20379;-68
2021/12/03 04:08:29;;;;;;;18.27;8.40;;;;;;;1.72;100.00;99928.06;4992135;28;20037;-68
2021/12/03 04:10:55;;;;;;;16.25;7.43;;;;;;;1.83;100.00;99944.69;4991305;28;20017;-68
2021/12/03 04:13:21;;;;;;;17.65;8.55;;;;;;;1.88;100.00;99940.31;4993897;28;20050;-68
2021/12/03 04:15:46;;;;;;;15.23;7.45;;;;;;;1.80;100.00;99922.81;4993161;28;20072;-68
2021/12/03 04:18:12;;;;;;;24.25;7.95;;;;;;;1.83;100.00;99935.97;4987225;28;20061;-68
2021/12/03 04:20:37;;;;;;;14.05;7.55;;;;;;;1.70;100.00;99921.09;4993725;28;20022;-68
2021/12/03 04:23:03;;;;;;;14.57;7.15;;;;;;;1.80;100.00;99936.81;4989838;28;20033;-67
2021/12/03 04:25:28;;;;;;;14.45;6.65;;;;;;;1.78;100.00;99943.81;4992561;28;20026;-67
2021/12/03 04:27:54;;;;;;;13.68;6.55;;;;;;;1.83;100.00;99942.06;4993219;28;20062;-67
2021/12/03 04:30:24;;;;;;;15.18;7.85;;;;;;;1.66;100.00;99927.19;4996995;28;20477;-67
2021/12/03 04:32:51;;;;;;;14.38;6.65;;;;;;;1.77;100.00;99942.06;4984612;28;20069;-67
2021/12/03 04:35:17;;;;;;;12.15;6.85;;;;;;;1.86;100.00;99952.53;4993307;28;20026;-67
2021/12/03 04:37:42;;;;;;;15.88;7.68;;;;;;;1.75;100.00;99946.41;4984109;28;20388;-67
2021/12/03 04:40:11;;;;;;;18.80;8.38;;;;;;;1.67;100.00;99960.38;4989588;28;20084;-67
2021/12/03 04:42:37;;;;;;;16.13;7.93;;;;;;;1.63;100.00;99958.66;4992065;28;20034;-67
2021/12/03 04:45:05;;;;;;;21.58;8.40;;;;;;;1.62;100.00;99959.50;4987272;28;20026;-67
2021/12/03 04:47:30;;;;;;;18.58;7.45;;;;;;;1.58;100.00;99960.38;4975976;28;20590;-67
2021/12/03 04:49:55;;;;;;;13.75;6.25;;;;;;;1.58;100.00;99963.00;4975823;28;20233;-67
2021/12/03 04:52:21;;;;;;;25.85;7.75;;;;;;;1.60;100.00;99967.34;4992248;28;20026;-67
2021/12/03 04:54:47;;;;;;;16.20;7.00;;;;;;;1.62;100.00;99980.47;4994140;28;20050;-67
2021/12/03 04:57:12;;;;;;;20.52;6.28;;;;;;;1.65;100.00;99983.97;4992125;28;20026;-67
2021/12/03 04:59:38;;;;;;;16.92;6.15;;;;;;;1.71;100.00;99981.38;4988468;28;20097;-67
2021/12/03 05:02:03;;;;;;;13.80;7.05;;;;;;;1.71;100.00;99984.00;4973574;28;20045;-67
2021/12/03 05:04:36;;;;;;;18.27;7.50;;;;;;;1.76;100.00;99990.13;4973909;28;20030;-67
2021/12/03 05:07:16;;;;;;;15.37;7.20;;;;;;;1.83;100.00;99991.03;4985096;28;20446;-67
2021/12/03 05:09:43;;;;;;;20.80;8.60;;;;;;;1.91;100.00;99995.38;4992673;28;20077;-67
2021/12/03 05:12:08;;;;;;;15.52;6.55;;;;;;;2.02;100.00;99992.78;4992447;28;20062;-67
2021/12/03 05:14:34;;;;;;;23.90;8.27;;;;;;;2.11;100.00;99985.78;4987406;28;20034;-67
2021/12/03 05:16:59;;;;;;;17.15;8.25;;;;;;;2.20;100.00;99985.81;4990158;28;20033;-68
2021/12/03 05:19:25;;;;;;;11.73;6.13;;;;;;;2.18;100.00;99987.56;4979510;28;20026;-67
2021/12/03 05:21:50;;;;;;;15.90;7.05;;;;;;;2.15;100.00;99987.56;4983713;28;20121;-67
2021/12/03 05:24:16;;;;;;;12.68;7.18;;;;;;;2.23;100.00;99993.69;4987122;28;20033;-67
2021/12/03 05:26:43;;;;;;;68.18;12.48;;;;;;;2.20;100.00;99985.81;4989811;28;20034;-67
2021/12/03 05:29:09;;;;;;;18.48;7.25;;;;;;;2.30;100.00;99987.56;4989084;28;20077;-67
2021/12/03 05:31:37;;;;;;;19.30;7.13;;;;;;;2.39;100.00;100016.41;4991799;28;20514;-67
2021/12/03 05:34:05;;;;;;;16.23;7.50;;;;;;;2.42;100.00;100018.19;4991350;28;20028;-67
2021/12/03 05:36:31;;;;;;;15.68;6.65;;;;;;;2.49;100.00;100028.66;4991551;28;20076;-67
2021/12/03 05:38:57;;;;;;;11.35;6.00;;;;;;;2.57;100.00;100019.03;4991741;28;20038;-67
2021/12/03 05:41:23;;;;;;;16.70;6.55;;;;;;;2.52;100.00;100015.53;4991489;28;20026;-67
2021/12/03 05:43:49;;;;;;;14.00;6.93;;;;;;;2.60;100.00;100016.41;5001715;28;20088;-67
2021/12/03 05:46:14;;;;;;;11.18;6.05;;;;;;;2.61;100.00;100018.16;5012534;28;20068;-67
2021/12/03 05:48:40;;;;;;;13.07;6.25;;;;;;;2.68;100.00;100021.66;5012381;28;20026;-67
2021/12/03 05:51:06;;;;;;;19.45;7.53;;;;;;;2.71;100.00;100019.03;4993903;28;20030;-67
2021/12/03 05:53:32;;;;;;;14.70;6.70;;;;;;;2.68;100.00;100019.03;4992191;28;20034;-67
2021/12/03 05:55:57;;;;;;;14.90;7.70;;;;;;;2.73;100.00;100015.50;4992226;28;20034;-67
2021/12/03 05:58:23;;;;;;;17.63;6.85;;;;;;;2.76;100.00;100004.13;4992350;28;20022;-67
2021/12/03 06:00:48;;;;;;;17.38;7.22;;;;;;;2.77;100.00;100020.78;4979386;28;20110;-67
2021/12/03 06:03:14;;;;;;;11.55;6.68;;;;;;;2.76;100.00;100021.63;4983212;28;20037;-67
2021/12/03 06:05:42;;;;;;;13.40;7.03;;;;;;;2.77;100.00;100028.66;4971580;28;20088;-67
2021/12/03 06:08:08;;;;;;;16.30;6.80;;;;;;;2.89;100.00;100024.25;4978248;28;20030;-68
2021/12/03 06:10:34;;;;;;;15.70;7.22;;;;;;;2.90;100.00;100018.09;4972864;28;20026;-68
2021/12/03 06:13:00;;;;;;;23.13;8.50;;;;;;;2.87;100.00;100033.03;4971930;28;20082;-68
2021/12/03 06:15:26;;;;;;;19.10;8.55;;;;;;;2.86;100.00;100026.00;4992088;28;20054;-68
2021/12/03 06:17:52;;;;;;;18.13;8.40;;;;;;;2.89;100.00;100018.09;5008111;28;20025;-68
2021/12/03 06:20:18;;;;;;;15.32;8.18;;;;;;;2.85;100.00;100013.75;4999221;28;20121;-68
2021/12/03 06:22:44;;;;;;;15.90;7.88;;;;;;;2.85;100.00;100011.13;4991278;28;20052;-68
2021/12/03 06:25:11;;;;;;;14.98;8.13;;;;;;;2.87;100.00;100010.22;4989818;28;20054;-68
2021/12/03 06:27:38;;;;;;;18.73;9.38;;;;;;;2.87;100.00;100012.00;4984893;28;20644;-68
2021/12/03 06:30:07;;;;;;;17.40;8.98;;;;;;;2.85;100.00;100019.00;4988433;28;20023;-68
2021/12/03 06:32:33;;;;;;;19.10;8.25;;;;;;;2.78;100.00;100014.63;4989221;28;20030;-68
2021/12/03 06:34:58;;;;;;;16.30;8.27;;;;;;;2.76;100.00;100014.63;4977592;28;20033;-68
2021/12/03 06:37:24;;;;;;;20.50;8.20;;;;;;;2.75;100.00;100019.91;4991105;28;20022;-68
2021/12/03 06:39:49;;;;;;;12.02;7.47;;;;;;;2.85;100.00;100019.00;4981730;28;20034;-68
2021/12/03 06:42:15;;;;;;;22.08;8.13;;;;;;;2.91;100.00;100025.13;4991412;28;20072;-68
2021/12/03 06:44:40;;;;;;;17.42;8.40;;;;;;;2.97;100.00;100037.34;4989134;28;20030;-67
2021/12/03 06:47:06;;;;;;;17.25;7.43;;;;;;;2.95;100.00;100041.75;4982653;28;20490;-67
2021/12/03 06:49:33;;;;;;;14.50;7.75;;;;;;;3.01;100.00;100045.25;4990662;28;20030;-68
2021/12/03 06:52:03;;;;;;;13.05;6.97;;;;;;;3.02;100.00;100053.97;4992068;28;20366;-68
2021/12/03 06:54:31;;;;;;;12.73;7.13;;;;;;;3.06;100.00;100055.75;4986020;28;20482;-68
2021/12/03 06:56:58;;;;;;;12.75;6.82;;;;;;;3.02;100.00;100059.22;4990089;28;20029;-67
2021/12/03 06:59:24;;;;;;;16.25;7.15;;;;;;;3.04;100.00;100046.97;4989374;28;20036;-68
2021/12/03 07:01:50;;;;;;;35.38;9.40;;;;;;;3.06;100.00;100061.00;5000294;28;20022;-68
2021/12/03 07:04:16;;;;;;;16.73;8.30;;;;;;;3.07;100.00;100054.84;5010469;28;20426;-68
2021/12/03 07:06:42;;;;;;;17.13;8.43;;;;;;;3.11;100.00;100053.97;5003980;28;20149;-68
2021/12/03 07:09:08;;;;;;;16.17;8.32;;;;;;;3.13;100.00;100062.75;4976573;28;20039;-68
2021/12/03 07:11:33;;;;;;;15.13;8.02;;;;;;;3.05;100.00;100070.63;4971273;28;20027;-68
2021/12/03 07:13:59;;;;;;;14.15;7.72;;;;;;;3.02;100.00;100065.38;4980685;28;20506;-68
2021/12/03 07:16:25;;;;;;;14.07;7.22;;;;;;;3.14;100.00;100075.88;4989288;28;20033;-68
2021/12/03 07:18:51;;;;;;;14.60;7.85;;;;;;;3.17;99.88;100086.38;4987183;28;20026;-68
2021/12/03 07:21:16;;;;;;;24.75;11.48;;;;;;;3.18;100.00;100084.63;4996321;28;20108;-68
2021/12/03 07:23:41;;;;;;;15.93;8.68;;;;;;;3.24;100.00;100081.97;5007327;28;20025;-68
2021/12/03 07:26:07;;;;;;;19.15;10.32;;;;;;;3.24;100.00;100090.75;4989815;28;20037;-68
2021/12/03 07:28:33;;;;;;;18.70;10.63;;;;;;;3.25;100.00;100079.34;4971573;28;20043;-68
2021/12/03 07:30:59;;;;;;;19.40;10.63;;;;;;;3.28;100.00;100079.31;4971573;28;20046;-68
2021/12/03 07:33:27;;;;;;;20.98;10.43;;;;;;;3.17;99.97;100053.94;4971843;28;20030;-68
2021/12/03 07:35:52;;;;;;;13.70;7.50;;;;;;;3.28;99.69;100081.09;4989619;28;20034;-68
2021/12/03 07:38:18;;;;;;;14.90;7.63;;;;;;;3.31;99.84;100081.09;4993799;28;20041;-68
2021/12/03 07:40:48;;;;;;;15.23;7.20;;;;;;;3.31;99.53;100086.34;4984500;28;20042;-68
2021/12/03 07:43:16;;;;;;;13.77;6.22;;;;;;;3.29;98.88;100088.09;4994140;28;20077;-68
2021/12/03 07:45:41;;;;;;;17.65;10.18;;;;;;;3.31;99.26;100081.94;4984272;28;20486;-68
2021/12/03 07:48:07;;;;;;;17.52;10.75;;;;;;;3.35;98.37;100086.31;4994583;28;20117;-68
2021/12/03 07:50:34;;;;;;;18.50;10.23;;;;;;;3.36;98.60;100071.44;4992295;28;20391;-68
2021/12/03 07:53:01;;;;;;;14.65;7.60;;;;;;;3.43;98.64;100081.03;4986690;28;20085;-68
2021/12/03 07:55:26;;;;;;;11.75;7.10;;;;;;;3.29;98.54;100064.44;4992669;28;20026;-68
2021/12/03 07:57:52;;;;;;;10.45;6.30;;;;;;;3.44;98.77;100070.50;4994649;28;20025;-68
2021/12/03 08:00:18;;;;;;;16.25;8.82;;;;;;;3.67;98.10;100075.72;4989265;28;20027;-68
2021/12/03 08:02:44;;;;;;;14.32;7.80;;;;;;;3.65;96.56;100074.84;4979329;28;20023;-68
2021/12/03 08:05:09;;;;;;;15.52;7.85;;;;;;;3.69;96.23;100080.06;4974146;28;20030;-68
2021/12/03 08:07:35;;;;;;;16.70;10.10;;;;;;;3.61;96.56;100073.97;4991281;28;20033;-68
2021/12/03 08:10:00;;;;;;;15.60;8.73;;;;;;;3.66;96.07;100087.09;4993745;28;20105;-68
2021/12/03 08:12:26;;;;;;;13.90;7.97;;;;;;;3.65;96.42;100080.09;4986350;28;20072;-68
2021/12/03 08:14:51;;;;;;;14.10;7.10;;;;;;;3.71;96.87;100082.69;4992421;28;20486;-68
2021/12/03 08:17:16;;;;;;;11.18;7.25;;;;;;;3.83;97.09;100087.91;4991987;28;20022;-68
2021/12/03 08:19:42;;;;;;;11.70;6.38;;;;;;;3.82;96.72;100094.91;4985799;28;20089;-68
2021/12/03 08:22:07;;;;;;;17.27;7.10;;;;;;;3.84;96.37;100100.16;4993270;28;20113;-68
2021/12/03 08:24:33;;;;;;;12.93;7.85;;;;;;;3.76;96.28;100078.28;4986610;28;20027;-68
2021/12/03 08:27:00;;;;;;;14.10;7.55;;;;;;;3.92;96.22;100090.50;4984566;28;20482;-68
2021/12/03 08:29:26;;;;;;;12.27;7.25;;;;;;;3.94;95.73;100101.88;4991198;28;20145;-68
2021/12/03 08:31:51;;;;;;;15.95;6.72;;;;;;;4.00;95.99;100086.06;4983837;28;20121;-67
2021/12/03 08:34:17;;;;;;;15.25;7.53;;;;;;;4.16;95.05;100095.63;4992817;28;20689;-67
2021/12/03 08:36:43;;;;;;;11.73;6.78;;;;;;;4.07;94.05;100098.28;4987217;28;20113;-67
2021/12/03 08:39:08;;;;;;;14.52;6.38;;;;;;;4.12;93.49;100096.50;4992141;28;20022;-67
2021/12/03 08:41:35;;;;;;;14.07;7.18;;;;;;;4.99;98.55;100098.50;4996651;28;20029;-67
2021/12/03 08:44:02;;;;;;;15.45;7.30;;;;;;;6.70;91.98;100094.66;4993180;28;20049;-67
2021/12/03 08:46:31;;;;;;;11.15;6.97;;;;;;;8.49;81.31;100092.91;4987461;28;20504;-67
2021/12/03 08:49:07;;;;;;;12.73;6.43;;;;;;;10.55;66.67;100090.78;4991850;28;20026;-67
2021/12/03 08:51:47;;;;;;;15.77;9.27;;;;;;;10.87;56.15;100097.75;4991928;28;20031;-67
2021/12/03 08:56:57;;;;;;;17.50;11.93;;;;;;;11.81;54.93;100090.91;4989674;28;20117;-67
2021/12/03 08:59:22;;;;;;;14.43;10.15;;;;;;;13.23;51.51;100095.13;4992208;28;20117;-67
2021/12/03 09:01:48;;;;;;;16.70;11.35;;;;;;;13.64;48.95;100091.53;4979336;28;20038;-67
2021/12/03 09:04:14;;;;;;;15.60;7.40;;;;;;;14.49;45.56;100087.59;4985431;28;20029;-67
2021/12/03 09:06:40;;;;;;;15.20;9.20;;;;;;;14.37;46.02;100089.97;4989094;28;20376;-67
2021/12/03 09:09:08;;;;;;;13.13;7.30;;;;;;;14.33;45.77;100099.09;4988594;28;20084;-67
2021/12/03 09:11:36;;;;;;;10.40;5.75;;;;;;;12.65;46.68;100101.94;4991470;28;20034;-67
2021/12/03 09:14:07;;;;;;;13.77;8.75;;;;;;;10.44;52.37;100111.50;4985441;28;20518;-67
2021/12/03 09:16:33;;;;;;;14.27;6.60;;;;;;;8.80;57.08;100116.03;4988788;28;20040;-67
2021/12/03 09:19:00;;;;;;;8.20;5.20;;;;;;;7.40;62.71;100116.34;4989501;28;20112;-67
2021/12/03 09:21:28;;;;;;;8.95;5.60;;;;;;;6.44;68.85;100126.72;4990151;28;20028;-67
2021/12/03 09:26:29;;;;;;;11.07;6.85;;;;;;;5.72;76.68;100113.56;4989494;28;20390;-67
2021/12/03 09:29:05;;;;;;;13.38;6.35;;;;;;;5.65;78.63;100104.00;4985840;28;20489;-66
2021/12/03 09:31:33;;;;;;;10.43;7.18;;;;;;;7.09;79.97;100093.09;4998767;28;20077;-66
2021/12/03 09:33:58;;;;;;;8.60;4.82;;;;;;;9.03;66.11;100073.00;4990436;28;20036;-66
2021/12/03 09:36:24;;;;;;;8.05;5.13;;;;;;;11.22;57.41;100081.47;4990496;28;20405;-66
2021/12/03 09:38:50;;;;;;;9.10;5.03;;;;;;;12.86;52.20;100077.91;4977685;28;20042;-66
2021/12/03 09:41:19;;;;;;;7.93;4.43;;;;;;;13.35;48.60;100075.88;4986946;28;20537;-66
2021/12/03 09:43:47;;;;;;;8.55;4.70;;;;;;;13.56;46.84;100083.00;4990756;28;20114;-66
2021/12/03 09:46:17;;;;;;;9.35;4.85;;;;;;;13.70;47.31;100076.09;4986789;28;20137;-66
2021/12/03 09:51:30;;;;;;;8.25;4.50;;;;;;;15.15;45.56;100069.16;4988111;28;20141;-66
2021/12/03 09:56:32;;;;;;;8.93;4.20;;;;;;;14.89;44.76;100057.06;4990044;28;20031;-66
2021/12/03 10:15:10;;;;;;;8.05;3.78;;;;;;;11.86;49.89;100048.13;4990429;28;20410;-66
2021/12/03 10:20:29;;;;;;;7.68;3.97;;;;;;;10.52;52.65;100053.66;4983505;28;20045;-66
2021/12/03 10:29:08;;;;;;;6.40;3.67;;;;;;;14.00;46.42;100036.41;4945887;29;20118;-66
2021/12/03 10:50:38;;;;;;;7.20;4.32;;;;;;;7.99;61.48;100030.41;4989010;28;20402;-66
2021/12/03 10:53:21;;;;;;;7.07;4.25;;;;;;;8.36;61.17;100027.84;4987896;28;20367;-66
2021/12/03 10:58:57;;;;;;;8.32;4.07;;;;;;;7.41;63.28;100025.47;4969174;28;20039;-66
2021/12/03 11:04:47;;;;;;;13.13;6.32;;;;;;;7.22;66.67;100042.59;4986503;28;20034;-66
2021/12/03 11:13:28;;;;;;;8.50;5.38;;;;;;;6.77;68.31;100013.47;4987896;28;20426;-66
2021/12/03 11:38:16;;;;;;;6.05;4.03;;;;;;;6.02;72.25;99968.91;5012576;28;20033;-66
2021/12/03 11:41:20;;;;;;;6.63;3.97;;;;;;;6.23;73.70;99975.63;4991035;28;20058;-66
2021/12/03 11:47:03;;;;;;;8.23;3.85;;;;;;;6.30;72.58;99966.72;4992882;28;20034;-66
2021/12/03 12:57:27;;;;;;;8.13;4.45;;;;;;;6.58;71.87;99901.94;4982118;28;20033;-66
2021/12/03 14:55:50;;;;;;;7.13;4.03;;;;;;;5.48;76.99;99794.69;4990970;28;20022;-65
2021/12/03 14:58:23;;;;;;;9.23;4.72;;;;;;;5.50;76.38;99798.19;4990991;28;20061;-65
2021/12/03 15:00:59;;;;;;;7.00;4.10;;;;;;;5.43;75.96;99789.50;4990070;28;20116;-65
2021/12/03 15:21:51;;;;;;;9.85;4.85;;;;;;;5.30;77.09;99769.50;4990187;28;20137;-64
2021/12/03 15:32:13;;;;;;;7.75;5.05;;;;;;;5.19;78.16;99764.38;4978559;28;20043;-64
2021/12/03 15:37:19;;;;;;;8.52;4.65;;;;;;;5.19;78.36;99748.56;4984288;28;20442;-65
2021/12/03 15:56:09;;;;;;;11.93;5.50;;;;;;;5.17;79.45;99752.13;4990815;28;20040;-65
2021/12/03 16:04:25;;;;;;;12.90;5.60;;;;;;;5.20;79.78;99739.75;4974517;28;20437;-65
2021/12/03 16:12:23;;;;;;;9.15;5.30;;;;;;;5.16;79.80;99732.78;5000284;28;20040;-65
2021/12/03 16:15:18;;;;;;;10.35;4.32;;;;;;;5.14;79.65;99723.19;4974026;28;20057;-65
2021/12/03 16:52:59;;;;;;;7.28;4.43;;;;;;;5.21;77.56;99680.84;4983566;28;20042;-65
2021/12/03 16:55:24;;;;;;;7.93;4.47;;;;;;;5.20;76.74;99671.22;4992821;28;20077;-65
2021/12/03 16:57:52;;;;;;;11.98;4.68;;;;;;;5.20;76.69;99670.34;4991766;28;20022;-65
2021/12/03 17:00:28;;;;;;;7.78;4.28;;;;;;;5.27;76.92;99678.09;4993590;28;20057;-65
2021/12/03 17:02:59;;;;;;;7.22;4.22;;;;;;;5.18;76.35;99670.38;4987711;28;20023;-65
2021/12/03 17:22:13;;;;;;;11.48;4.68;;;;;;;5.20;75.06;99633.44;4993352;28;20038;-64
2021/12/03 18:00:52;;;;;;;6.03;3.63;;;;;;;4.94;73.23;99582.94;4990716;28;20038;-64
2021/12/03 18:08:20;;;;;;;8.45;4.10;;;;;;;4.88;72.48;99572.47;4987331;28;20105;-64
2021/12/03 18:55:56;;;;;;;4.82;2.88;;;;;;;5.42;67.91;99497.63;4995424;28;20057;-64
2021/12/03 18:58:25;;;;;;;8.45;2.78;;;;;;;5.40;67.25;99494.19;4986477;28;20421;-64
2021/12/03 19:00:52;;;;;;;7.40;3.25;;;;;;;5.46;67.84;99506.38;4989611;28;20030;-64
2021/12/03 19:03:26;;;;;;;5.05;2.78;;;;;;;5.50;67.04;99500.13;4984345;28;20031;-64
2021/12/03 19:06:01;;;;;;;8.55;3.03;;;;;;;5.47;65.91;99494.94;4985191;28;20610;-64
2021/12/03 19:11:18;;;;;;;6.22;2.78;;;;;;;5.55;65.30;99498.28;4974831;28;20058;-64
2021/12/03 19:13:43;;;;;;;5.75;2.90;;;;;;;5.52;65.08;99495.72;4969583;28;20058;-64
2021/12/03 19:16:11;;;;;;;4.78;2.92;;;;;;;5.58;65.32;99477.09;4980334;28;20574;-64
2021/12/03 19:18:43;;;;;;;4.22;2.67;;;;;;;5.60;65.20;99470.88;4968351;28;20039;-63